sensor_id;sensor_type;location;lat;lon;timestamp;P1;durP1;ratioP1;P2;durP2;ratioP2
26908;SDS011;14477;51.038;4.588;2023-02-28T00:00:05;4.93;;;2.70;;
26908;SDS011;14477;51.038;4.588;2023-02-28T00:02:35;4.72;;;3.00;;
26908;SDS011;14477;51.038;4.588;2023-02-28T00:05:02;4.75;;;2.65;;
26908;SDS011;14477;51.038;4.588;2023-02-28T00:07:29;4.27;;;2.50;;
26908;SDS011;14477;51.038;4.588;2023-02-28T00:09:55;4.25;;;2.63;;
26908;SDS011;14477;51.038;4.588;2023-02-28T00:12:21;4.10;;;2.60;;
26908;SDS011;14477;51.038;4.588;2023-02-28T00:14:47;5.72;;;2.72;;
26908;SDS011;14477;51.038;4.588;2023-02-28T00:17:13;4.47;;;2.80;;
26908;SDS011;14477;51.038;4.588;2023-02-28T00:19:39;4.93;;;2.70;;
26908;SDS011;14477;51.038;4.588;2023-02-28T00:22:05;6.23;;;2.90;;
26908;SDS011;14477;51.038;4.588;2023-02-28T00:24:30;6.13;;;3.05;;
26908;SDS011;14477;51.038;4.588;2023-02-28T00:26:56;5.47;;;2.90;;
26908;SDS011;14477;51.038;4.588;2023-02-28T00:29:22;3.50;;;2.40;;
26908;SDS011;14477;51.038;4.588;2023-02-28T00:31:48;4.60;;;2.58;;
26908;SDS011;14477;51.038;4.588;2023-02-28T00:34:13;6.17;;;2.67;;
26908;SDS011;14477;51.038;4.588;2023-02-28T00:36:39;4.63;;;2.80;;
26908;SDS011;14477;51.038;4.588;2023-02-28T00:39:08;4.07;;;2.40;;
26908;SDS011;14477;51.038;4.588;2023-02-28T00:41:34;6.25;;;3.10;;
26908;SDS011;14477;51.038;4.588;2023-02-28T00:44:00;4.10;;;2.50;;
26908;SDS011;14477;51.038;4.588;2023-02-28T00:46:26;5.50;;;3.27;;
26908;SDS011;14477;51.038;4.588;2023-02-28T00:48:52;5.32;;;3.20;;
26908;SDS011;14477;51.038;4.588;2023-02-28T00:51:18;5.40;;;2.70;;
26908;SDS011;14477;51.038;4.588;2023-02-28T00:53:43;5.35;;;2.80;;
26908;SDS011;14477;51.038;4.588;2023-02-28T00:56:09;6.57;;;3.20;;
26908;SDS011;14477;51.038;4.588;2023-02-28T00:58:35;5.35;;;3.08;;
26908;SDS011;14477;51.038;4.588;2023-02-28T01:01:01;5.65;;;2.90;;
26908;SDS011;14477;51.038;4.588;2023-02-28T01:03:27;5.22;;;2.95;;
26908;SDS011;14477;51.038;4.588;2023-02-28T01:05:52;5.20;;;2.97;;
26908;SDS011;14477;51.038;4.588;2023-02-28T01:08:18;4.50;;;2.75;;
26908;SDS011;14477;51.038;4.588;2023-02-28T01:10:44;5.47;;;2.60;;
26908;SDS011;14477;51.038;4.588;2023-02-28T01:13:11;4.53;;;2.85;;
26908;SDS011;14477;51.038;4.588;2023-02-28T01:15:38;4.70;;;2.78;;
26908;SDS011;14477;51.038;4.588;2023-02-28T01:18:08;5.43;;;2.90;;
26908;SDS011;14477;51.038;4.588;2023-02-28T01:20:36;6.97;;;3.05;;
26908;SDS011;14477;51.038;4.588;2023-02-28T01:23:02;5.30;;;3.13;;
26908;SDS011;14477;51.038;4.588;2023-02-28T01:25:28;4.72;;;3.20;;
26908;SDS011;14477;51.038;4.588;2023-02-28T01:27:54;4.20;;;2.80;;
26908;SDS011;14477;51.038;4.588;2023-02-28T01:30:20;5.13;;;3.17;;
26908;SDS011;14477;51.038;4.588;2023-02-28T01:32:46;5.07;;;3.00;;
26908;SDS011;14477;51.038;4.588;2023-02-28T01:35:12;4.90;;;2.73;;
26908;SDS011;14477;51.038;4.588;2023-02-28T01:37:37;5.47;;;3.08;;
26908;SDS011;14477;51.038;4.588;2023-02-28T01:40:03;6.07;;;3.27;;
26908;SDS011;14477;51.038;4.588;2023-02-28T01:42:29;7.15;;;3.17;;
26908;SDS011;14477;51.038;4.588;2023-02-28T01:45:00;6.50;;;3.17;;
26908;SDS011;14477;51.038;4.588;2023-02-28T01:47:30;4.80;;;2.90;;
26908;SDS011;14477;51.038;4.588;2023-02-28T01:50:00;5.00;;;2.95;;
26908;SDS011;14477;51.038;4.588;2023-02-28T01:52:29;6.80;;;3.33;;
26908;SDS011;14477;51.038;4.588;2023-02-28T01:54:56;4.63;;;2.78;;
26908;SDS011;14477;51.038;4.588;2023-02-28T01:57:29;5.70;;;3.25;;
26908;SDS011;14477;51.038;4.588;2023-02-28T02:00:07;6.50;;;3.33;;
26908;SDS011;14477;51.038;4.588;2023-02-28T02:02:34;4.82;;;2.90;;
26908;SDS011;14477;51.038;4.588;2023-02-28T02:05:06;6.70;;;3.50;;
26908;SDS011;14477;51.038;4.588;2023-02-28T02:07:37;5.45;;;3.10;;
26908;SDS011;14477;51.038;4.588;2023-02-28T02:10:13;5.93;;;3.40;;
26908;SDS011;14477;51.038;4.588;2023-02-28T02:18:18;4.88;;;2.83;;
26908;SDS011;14477;51.038;4.588;2023-02-28T02:32:20;5.80;;;3.15;;
26908;SDS011;14477;51.038;4.588;2023-02-28T02:35:14;5.25;;;2.80;;
26908;SDS011;14477;51.038;4.588;2023-02-28T02:40:56;6.47;;;3.17;;
26908;SDS011;14477;51.038;4.588;2023-02-28T02:43:42;5.25;;;2.88;;
26908;SDS011;14477;51.038;4.588;2023-02-28T02:48:56;5.50;;;2.90;;
26908;SDS011;14477;51.038;4.588;2023-02-28T02:51:24;5.25;;;2.80;;
26908;SDS011;14477;51.038;4.588;2023-02-28T02:53:56;5.17;;;3.10;;
26908;SDS011;14477;51.038;4.588;2023-02-28T02:56:33;5.60;;;3.10;;
26908;SDS011;14477;51.038;4.588;2023-02-28T02:59:03;4.90;;;3.10;;
26908;SDS011;14477;51.038;4.588;2023-02-28T03:01:32;4.70;;;2.88;;
26908;SDS011;14477;51.038;4.588;2023-02-28T03:04:04;5.10;;;3.10;;
26908;SDS011;14477;51.038;4.588;2023-02-28T03:06:33;5.37;;;2.87;;
26908;SDS011;14477;51.038;4.588;2023-02-28T03:09:00;6.55;;;3.50;;
26908;SDS011;14477;51.038;4.588;2023-02-28T03:11:26;5.85;;;3.10;;
26908;SDS011;14477;51.038;4.588;2023-02-28T03:25:11;4.80;;;2.55;;
26908;SDS011;14477;51.038;4.588;2023-02-28T03:30:49;6.15;;;2.95;;
26908;SDS011;14477;51.038;4.588;2023-02-28T03:35:50;4.65;;;2.63;;
26908;SDS011;14477;51.038;4.588;2023-02-28T03:38:24;5.50;;;2.88;;
26908;SDS011;14477;51.038;4.588;2023-02-28T03:41:09;5.90;;;3.20;;
26908;SDS011;14477;51.038;4.588;2023-02-28T03:43:53;4.85;;;3.08;;
26908;SDS011;14477;51.038;4.588;2023-02-28T03:46:23;5.40;;;2.77;;
26908;SDS011;14477;51.038;4.588;2023-02-28T03:48:54;4.72;;;2.70;;
26908;SDS011;14477;51.038;4.588;2023-02-28T03:51:22;4.82;;;2.75;;
26908;SDS011;14477;51.038;4.588;2023-02-28T03:53:57;5.18;;;2.63;;
26908;SDS011;14477;51.038;4.588;2023-02-28T03:56:34;5.15;;;2.50;;
26908;SDS011;14477;51.038;4.588;2023-02-28T03:59:05;5.37;;;2.90;;
26908;SDS011;14477;51.038;4.588;2023-02-28T04:01:42;4.13;;;2.53;;
26908;SDS011;14477;51.038;4.588;2023-02-28T04:04:10;5.03;;;2.60;;
26908;SDS011;14477;51.038;4.588;2023-02-28T04:06:38;4.30;;;2.60;;
26908;SDS011;14477;51.038;4.588;2023-02-28T04:09:05;4.20;;;2.63;;
26908;SDS011;14477;51.038;4.588;2023-02-28T04:14:02;4.63;;;2.58;;
26908;SDS011;14477;51.038;4.588;2023-02-28T04:16:30;4.70;;;2.70;;
26908;SDS011;14477;51.038;4.588;2023-02-28T04:18:56;6.07;;;2.75;;
26908;SDS011;14477;51.038;4.588;2023-02-28T04:21:46;5.85;;;2.65;;
26908;SDS011;14477;51.038;4.588;2023-02-28T04:24:14;5.47;;;2.57;;
26908;SDS011;14477;51.038;4.588;2023-02-28T04:26:43;4.78;;;2.67;;
26908;SDS011;14477;51.038;4.588;2023-02-28T04:29:15;4.60;;;2.65;;
26908;SDS011;14477;51.038;4.588;2023-02-28T04:31:50;4.80;;;2.40;;
26908;SDS011;14477;51.038;4.588;2023-02-28T04:34:18;4.70;;;2.65;;
26908;SDS011;14477;51.038;4.588;2023-02-28T04:36:46;5.37;;;2.87;;
26908;SDS011;14477;51.038;4.588;2023-02-28T04:39:14;4.63;;;2.63;;
26908;SDS011;14477;51.038;4.588;2023-02-28T04:41:43;5.65;;;3.08;;
26908;SDS011;14477;51.038;4.588;2023-02-28T04:44:09;5.57;;;3.08;;
26908;SDS011;14477;51.038;4.588;2023-02-28T04:46:35;5.50;;;3.00;;
26908;SDS011;14477;51.038;4.588;2023-02-28T04:49:01;5.83;;;3.30;;
26908;SDS011;14477;51.038;4.588;2023-02-28T04:51:27;4.97;;;2.90;;
26908;SDS011;14477;51.038;4.588;2023-02-28T04:53:54;6.63;;;3.03;;
26908;SDS011;14477;51.038;4.588;2023-02-28T04:56:20;5.07;;;3.30;;
26908;SDS011;14477;51.038;4.588;2023-02-28T04:58:46;6.33;;;3.40;;
26908;SDS011;14477;51.038;4.588;2023-02-28T05:01:17;5.65;;;3.20;;
26908;SDS011;14477;51.038;4.588;2023-02-28T05:03:46;5.43;;;2.92;;
26908;SDS011;14477;51.038;4.588;2023-02-28T05:06:12;6.18;;;3.50;;
26908;SDS011;14477;51.038;4.588;2023-02-28T05:08:38;5.80;;;2.97;;
26908;SDS011;14477;51.038;4.588;2023-02-28T05:11:06;4.82;;;2.90;;
26908;SDS011;14477;51.038;4.588;2023-02-28T05:13:40;5.22;;;3.00;;
26908;SDS011;14477;51.038;4.588;2023-02-28T05:16:06;5.57;;;3.17;;
26908;SDS011;14477;51.038;4.588;2023-02-28T05:18:31;5.93;;;2.83;;
26908;SDS011;14477;51.038;4.588;2023-02-28T05:20:57;5.22;;;3.08;;
26908;SDS011;14477;51.038;4.588;2023-02-28T05:23:26;6.32;;;3.00;;
26908;SDS011;14477;51.038;4.588;2023-02-28T05:25:52;4.87;;;2.90;;
26908;SDS011;14477;51.038;4.588;2023-02-28T05:28:19;5.68;;;3.30;;
26908;SDS011;14477;51.038;4.588;2023-02-28T05:30:45;4.97;;;3.15;;
26908;SDS011;14477;51.038;4.588;2023-02-28T05:33:12;5.93;;;3.10;;
26908;SDS011;14477;51.038;4.588;2023-02-28T05:35:38;6.35;;;3.13;;
26908;SDS011;14477;51.038;4.588;2023-02-28T05:38:05;5.87;;;3.17;;
26908;SDS011;14477;51.038;4.588;2023-02-28T05:40:31;6.28;;;3.08;;
26908;SDS011;14477;51.038;4.588;2023-02-28T05:42:57;5.55;;;3.10;;
26908;SDS011;14477;51.038;4.588;2023-02-28T05:45:22;7.03;;;3.60;;
26908;SDS011;14477;51.038;4.588;2023-02-28T05:47:48;5.82;;;3.20;;
26908;SDS011;14477;51.038;4.588;2023-02-28T05:50:18;5.82;;;3.13;;
26908;SDS011;14477;51.038;4.588;2023-02-28T05:52:43;5.33;;;2.90;;
26908;SDS011;14477;51.038;4.588;2023-02-28T05:55:09;5.43;;;3.30;;
26908;SDS011;14477;51.038;4.588;2023-02-28T05:57:35;4.87;;;3.20;;
26908;SDS011;14477;51.038;4.588;2023-02-28T06:00:01;6.00;;;3.00;;
26908;SDS011;14477;51.038;4.588;2023-02-28T06:02:27;6.32;;;3.42;;
26908;SDS011;14477;51.038;4.588;2023-02-28T06:04:53;6.47;;;3.07;;
26908;SDS011;14477;51.038;4.588;2023-02-28T06:07:19;5.03;;;3.00;;
26908;SDS011;14477;51.038;4.588;2023-02-28T06:09:45;4.23;;;2.80;;
26908;SDS011;14477;51.038;4.588;2023-02-28T06:12:10;4.60;;;2.80;;
26908;SDS011;14477;51.038;4.588;2023-02-28T06:14:36;6.33;;;3.30;;
26908;SDS011;14477;51.038;4.588;2023-02-28T06:17:02;6.50;;;3.25;;
26908;SDS011;14477;51.038;4.588;2023-02-28T06:19:29;6.28;;;3.40;;
26908;SDS011;14477;51.038;4.588;2023-02-28T06:21:55;6.15;;;3.15;;
26908;SDS011;14477;51.038;4.588;2023-02-28T06:24:23;5.57;;;3.30;;
26908;SDS011;14477;51.038;4.588;2023-02-28T06:26:49;5.32;;;3.22;;
26908;SDS011;14477;51.038;4.588;2023-02-28T06:29:16;5.32;;;3.22;;
26908;SDS011;14477;51.038;4.588;2023-02-28T06:31:43;5.28;;;3.20;;
26908;SDS011;14477;51.038;4.588;2023-02-28T06:34:10;6.05;;;3.08;;
26908;SDS011;14477;51.038;4.588;2023-02-28T06:36:37;5.97;;;3.17;;
26908;SDS011;14477;51.038;4.588;2023-02-28T06:39:04;4.85;;;3.30;;
26908;SDS011;14477;51.038;4.588;2023-02-28T06:41:30;5.25;;;3.22;;
26908;SDS011;14477;51.038;4.588;2023-02-28T06:43:56;7.23;;;3.40;;
26908;SDS011;14477;51.038;4.588;2023-02-28T06:46:22;4.85;;;2.90;;
26908;SDS011;14477;51.038;4.588;2023-02-28T06:48:48;5.20;;;3.40;;
26908;SDS011;14477;51.038;4.588;2023-02-28T06:51:16;5.95;;;3.10;;
26908;SDS011;14477;51.038;4.588;2023-02-28T06:53:45;5.30;;;3.20;;
26908;SDS011;14477;51.038;4.588;2023-02-28T06:56:12;5.70;;;3.00;;
26908;SDS011;14477;51.038;4.588;2023-02-28T06:58:39;5.95;;;3.47;;
26908;SDS011;14477;51.038;4.588;2023-02-28T07:01:06;6.82;;;3.33;;
26908;SDS011;14477;51.038;4.588;2023-02-28T07:03:32;5.00;;;2.97;;
26908;SDS011;14477;51.038;4.588;2023-02-28T07:06:00;8.02;;;3.53;;
26908;SDS011;14477;51.038;4.588;2023-02-28T07:08:28;5.93;;;3.00;;
26908;SDS011;14477;51.038;4.588;2023-02-28T07:10:54;5.55;;;3.08;;
26908;SDS011;14477;51.038;4.588;2023-02-28T07:13:21;5.30;;;2.90;;
26908;SDS011;14477;51.038;4.588;2023-02-28T07:15:54;5.93;;;3.40;;
26908;SDS011;14477;51.038;4.588;2023-02-28T07:18:25;5.25;;;3.22;;
26908;SDS011;14477;51.038;4.588;2023-02-28T07:20:51;6.00;;;3.50;;
26908;SDS011;14477;51.038;4.588;2023-02-28T07:23:17;6.68;;;3.60;;
26908;SDS011;14477;51.038;4.588;2023-02-28T07:25:43;4.60;;;3.30;;
26908;SDS011;14477;51.038;4.588;2023-02-28T07:28:11;5.68;;;3.03;;
26908;SDS011;14477;51.038;4.588;2023-02-28T07:30:38;5.78;;;3.53;;
26908;SDS011;14477;51.038;4.588;2023-02-28T07:33:04;5.83;;;3.00;;
26908;SDS011;14477;51.038;4.588;2023-02-28T07:35:30;4.95;;;3.20;;
26908;SDS011;14477;51.038;4.588;2023-02-28T07:38:00;4.93;;;3.03;;
26908;SDS011;14477;51.038;4.588;2023-02-28T07:40:26;5.90;;;3.42;;
26908;SDS011;14477;51.038;4.588;2023-02-28T07:42:52;6.03;;;3.67;;
26908;SDS011;14477;51.038;4.588;2023-02-28T07:45:18;6.18;;;3.50;;
26908;SDS011;14477;51.038;4.588;2023-02-28T07:47:44;5.22;;;3.63;;
26908;SDS011;14477;51.038;4.588;2023-02-28T07:50:11;5.88;;;3.70;;
26908;SDS011;14477;51.038;4.588;2023-02-28T07:52:39;5.10;;;3.20;;
26908;SDS011;14477;51.038;4.588;2023-02-28T07:55:06;5.00;;;3.28;;
26908;SDS011;14477;51.038;4.588;2023-02-28T07:57:34;5.47;;;3.53;;
26908;SDS011;14477;51.038;4.588;2023-02-28T08:00:01;4.78;;;3.35;;
26908;SDS011;14477;51.038;4.588;2023-02-28T08:02:28;4.97;;;3.03;;
26908;SDS011;14477;51.038;4.588;2023-02-28T08:04:54;3.87;;;3.07;;
26908;SDS011;14477;51.038;4.588;2023-02-28T08:07:20;5.07;;;3.30;;
26908;SDS011;14477;51.038;4.588;2023-02-28T08:09:46;4.72;;;3.13;;
26908;SDS011;14477;51.038;4.588;2023-02-28T08:12:12;4.33;;;3.23;;
26908;SDS011;14477;51.038;4.588;2023-02-28T08:14:38;3.95;;;3.10;;
26908;SDS011;14477;51.038;4.588;2023-02-28T08:17:04;3.45;;;2.45;;
26908;SDS011;14477;51.038;4.588;2023-02-28T08:19:31;3.70;;;2.83;;
26908;SDS011;14477;51.038;4.588;2023-02-28T08:21:57;3.90;;;2.70;;
26908;SDS011;14477;51.038;4.588;2023-02-28T08:24:23;3.85;;;2.88;;
26908;SDS011;14477;51.038;4.588;2023-02-28T08:26:49;3.83;;;2.63;;
26908;SDS011;14477;51.038;4.588;2023-02-28T08:29:15;3.40;;;2.70;;
26908;SDS011;14477;51.038;4.588;2023-02-28T08:31:41;4.70;;;2.70;;
26908;SDS011;14477;51.038;4.588;2023-02-28T08:34:12;3.67;;;2.60;;
26908;SDS011;14477;51.038;4.588;2023-02-28T08:36:39;3.75;;;2.58;;
26908;SDS011;14477;51.038;4.588;2023-02-28T08:39:06;5.57;;;2.58;;
26908;SDS011;14477;51.038;4.588;2023-02-28T08:41:32;4.23;;;2.60;;
26908;SDS011;14477;51.038;4.588;2023-02-28T08:43:58;3.65;;;2.45;;
26908;SDS011;14477;51.038;4.588;2023-02-28T08:46:25;3.38;;;2.28;;
26908;SDS011;14477;51.038;4.588;2023-02-28T08:48:54;3.67;;;2.50;;
26908;SDS011;14477;51.038;4.588;2023-02-28T08:51:24;3.13;;;2.10;;
26908;SDS011;14477;51.038;4.588;2023-02-28T08:53:53;3.83;;;2.38;;
26908;SDS011;14477;51.038;4.588;2023-02-28T08:56:20;4.32;;;2.40;;
26908;SDS011;14477;51.038;4.588;2023-02-28T08:58:47;4.43;;;2.33;;
26908;SDS011;14477;51.038;4.588;2023-02-28T09:01:15;3.58;;;2.30;;
26908;SDS011;14477;51.038;4.588;2023-02-28T09:03:46;3.47;;;2.20;;
26908;SDS011;14477;51.038;4.588;2023-02-28T09:06:14;2.97;;;1.88;;
26908;SDS011;14477;51.038;4.588;2023-02-28T09:08:41;2.50;;;1.80;;
26908;SDS011;14477;51.038;4.588;2023-02-28T09:11:07;2.92;;;1.75;;
26908;SDS011;14477;51.038;4.588;2023-02-28T09:13:34;3.40;;;2.05;;
26908;SDS011;14477;51.038;4.588;2023-02-28T09:16:00;2.73;;;2.00;;
26908;SDS011;14477;51.038;4.588;2023-02-28T09:18:27;3.70;;;2.30;;
26908;SDS011;14477;51.038;4.588;2023-02-28T09:20:54;3.45;;;2.22;;
26908;SDS011;14477;51.038;4.588;2023-02-28T09:23:20;3.88;;;2.40;;
26908;SDS011;14477;51.038;4.588;2023-02-28T09:25:50;3.80;;;2.30;;
26908;SDS011;14477;51.038;4.588;2023-02-28T09:28:17;3.15;;;2.45;;
26908;SDS011;14477;51.038;4.588;2023-02-28T09:30:44;3.20;;;2.17;;
26908;SDS011;14477;51.038;4.588;2023-02-28T09:33:11;3.13;;;2.10;;
26908;SDS011;14477;51.038;4.588;2023-02-28T09:35:38;3.23;;;2.10;;
26908;SDS011;14477;51.038;4.588;2023-02-28T09:38:04;3.10;;;2.15;;
26908;SDS011;14477;51.038;4.588;2023-02-28T09:40:35;2.20;;;1.98;;
26908;SDS011;14477;51.038;4.588;2023-02-28T09:43:04;3.30;;;2.08;;
26908;SDS011;14477;51.038;4.588;2023-02-28T09:45:33;2.75;;;2.10;;
26908;SDS011;14477;51.038;4.588;2023-02-28T09:48:12;3.10;;;2.20;;
26908;SDS011;14477;51.038;4.588;2023-02-28T09:50:46;2.85;;;2.08;;
26908;SDS011;14477;51.038;4.588;2023-02-28T09:53:20;2.53;;;1.80;;
26908;SDS011;14477;51.038;4.588;2023-02-28T09:55:58;2.75;;;2.00;;
26908;SDS011;14477;51.038;4.588;2023-02-28T10:03:39;2.30;;;1.63;;
26908;SDS011;14477;51.038;4.588;2023-02-28T10:06:11;2.35;;;1.70;;
26908;SDS011;14477;51.038;4.588;2023-02-28T10:08:40;2.13;;;1.80;;
26908;SDS011;14477;51.038;4.588;2023-02-28T10:11:11;2.25;;;1.60;;
26908;SDS011;14477;51.038;4.588;2023-02-28T10:13:46;1.60;;;1.35;;
26908;SDS011;14477;51.038;4.588;2023-02-28T10:16:37;2.15;;;1.60;;
26908;SDS011;14477;51.038;4.588;2023-02-28T10:24:42;2.85;;;1.70;;
26908;SDS011;14477;51.038;4.588;2023-02-28T10:27:14;2.22;;;1.50;;
26908;SDS011;14477;51.038;4.588;2023-02-28T10:29:42;2.15;;;1.52;;
26908;SDS011;14477;51.038;4.588;2023-02-28T10:32:10;2.03;;;1.40;;
26908;SDS011;14477;51.038;4.588;2023-02-28T10:34:39;2.50;;;1.43;;
26908;SDS011;14477;51.038;4.588;2023-02-28T10:37:05;1.83;;;1.50;;
26908;SDS011;14477;51.038;4.588;2023-02-28T10:44:45;2.50;;;1.60;;
26908;SDS011;14477;51.038;4.588;2023-02-28T10:47:17;1.83;;;1.42;;
26908;SDS011;14477;51.038;4.588;2023-02-28T10:49:48;1.80;;;1.40;;
26908;SDS011;14477;51.038;4.588;2023-02-28T10:52:33;1.75;;;1.50;;
26908;SDS011;14477;51.038;4.588;2023-02-28T10:55:25;1.77;;;1.50;;
26908;SDS011;14477;51.038;4.588;2023-02-28T10:57:51;1.73;;;1.40;;
26908;SDS011;14477;51.038;4.588;2023-02-28T11:00:22;2.08;;;1.50;;
26908;SDS011;14477;51.038;4.588;2023-02-28T11:02:50;2.25;;;1.60;;
26908;SDS011;14477;51.038;4.588;2023-02-28T11:05:27;2.53;;;1.67;;
26908;SDS011;14477;51.038;4.588;2023-02-28T11:10:37;2.20;;;1.50;;
26908;SDS011;14477;51.038;4.588;2023-02-28T11:13:03;2.33;;;1.60;;
26908;SDS011;14477;51.038;4.588;2023-02-28T11:15:31;2.10;;;1.60;;
26908;SDS011;14477;51.038;4.588;2023-02-28T11:20:25;1.70;;;1.40;;
26908;SDS011;14477;51.038;4.588;2023-02-28T11:22:53;2.58;;;1.45;;
26908;SDS011;14477;51.038;4.588;2023-02-28T11:25:22;2.67;;;1.38;;
26908;SDS011;14477;51.038;4.588;2023-02-28T11:27:55;1.70;;;1.30;;
26908;SDS011;14477;51.038;4.588;2023-02-28T11:30:37;2.00;;;1.50;;
26908;SDS011;14477;51.038;4.588;2023-02-28T11:36:21;1.90;;;1.52;;
26908;SDS011;14477;51.038;4.588;2023-02-28T11:38:55;1.90;;;1.35;;
26908;SDS011;14477;51.038;4.588;2023-02-28T11:44:20;1.50;;;1.23;;
26908;SDS011;14477;51.038;4.588;2023-02-28T11:52:21;2.45;;;1.60;;
26908;SDS011;14477;51.038;4.588;2023-02-28T11:54:53;2.65;;;1.60;;
26908;SDS011;14477;51.038;4.588;2023-02-28T12:06:02;1.70;;;1.20;;
26908;SDS011;14477;51.038;4.588;2023-02-28T12:17:32;1.50;;;1.40;;
26908;SDS011;14477;51.038;4.588;2023-02-28T12:28:14;2.30;;;1.50;;
26908;SDS011;14477;51.038;4.588;2023-02-28T12:30:49;1.77;;;1.50;;
26908;SDS011;14477;51.038;4.588;2023-02-28T12:33:40;1.40;;;1.20;;
26908;SDS011;14477;51.038;4.588;2023-02-28T12:36:11;1.75;;;1.48;;
26908;SDS011;14477;51.038;4.588;2023-02-28T12:38:45;1.60;;;1.40;;
26908;SDS011;14477;51.038;4.588;2023-02-28T12:47:03;2.13;;;1.67;;
26908;SDS011;14477;51.038;4.588;2023-02-28T12:49:36;1.50;;;1.38;;
26908;SDS011;14477;51.038;4.588;2023-02-28T12:52:11;1.65;;;1.38;;
26908;SDS011;14477;51.038;4.588;2023-02-28T12:57:34;1.85;;;1.42;;
26908;SDS011;14477;51.038;4.588;2023-02-28T13:00:16;1.80;;;1.47;;
26908;SDS011;14477;51.038;4.588;2023-02-28T13:05:29;2.28;;;1.65;;
26908;SDS011;14477;51.038;4.588;2023-02-28T13:08:36;2.22;;;1.50;;
26908;SDS011;14477;51.038;4.588;2023-02-28T13:11:39;2.10;;;1.70;;
26908;SDS011;14477;51.038;4.588;2023-02-28T13:17:02;1.77;;;1.58;;
26908;SDS011;14477;51.038;4.588;2023-02-28T13:19:30;2.03;;;1.70;;
26908;SDS011;14477;51.038;4.588;2023-02-28T13:21:57;1.90;;;1.52;;
26908;SDS011;14477;51.038;4.588;2023-02-28T13:29:37;1.90;;;1.40;;
26908;SDS011;14477;51.038;4.588;2023-02-28T13:34:32;2.37;;;1.60;;
26908;SDS011;14477;51.038;4.588;2023-02-28T13:42:51;3.50;;;1.87;;
26908;SDS011;14477;51.038;4.588;2023-02-28T13:50:24;3.53;;;1.60;;
26908;SDS011;14477;51.038;4.588;2023-02-28T13:55:41;2.28;;;1.60;;
26908;SDS011;14477;51.038;4.588;2023-02-28T13:58:26;3.17;;;2.00;;
26908;SDS011;14477;51.038;4.588;2023-02-28T14:06:54;2.13;;;1.60;;
26908;SDS011;14477;51.038;4.588;2023-02-28T14:09:35;1.88;;;1.50;;
26908;SDS011;14477;51.038;4.588;2023-02-28T14:17:58;2.97;;;1.80;;
26908;SDS011;14477;51.038;4.588;2023-02-28T14:20:29;2.63;;;2.10;;
26908;SDS011;14477;51.038;4.588;2023-02-28T14:23:08;1.75;;;1.55;;
26908;SDS011;14477;51.038;4.588;2023-02-28T14:31:25;2.75;;;1.90;;
26908;SDS011;14477;51.038;4.588;2023-02-28T14:36:48;2.95;;;1.58;;
26908;SDS011;14477;51.038;4.588;2023-02-28T14:39:18;4.15;;;2.08;;
26908;SDS011;14477;51.038;4.588;2023-02-28T14:41:47;2.37;;;1.80;;
26908;SDS011;14477;51.038;4.588;2023-02-28T14:44:23;2.00;;;1.50;;
26908;SDS011;14477;51.038;4.588;2023-02-28T14:46:54;2.53;;;1.90;;
26908;SDS011;14477;51.038;4.588;2023-02-28T14:49:55;2.42;;;1.83;;
26908;SDS011;14477;51.038;4.588;2023-02-28T14:52:21;3.50;;;1.90;;
26908;SDS011;14477;51.038;4.588;2023-02-28T14:54:58;3.00;;;1.92;;
26908;SDS011;14477;51.038;4.588;2023-02-28T14:57:31;2.65;;;1.65;;
26908;SDS011;14477;51.038;4.588;2023-02-28T15:02:37;2.55;;;1.67;;
26908;SDS011;14477;51.038;4.588;2023-02-28T15:07:42;2.17;;;1.70;;
26908;SDS011;14477;51.038;4.588;2023-02-28T15:10:23;2.60;;;1.83;;
26908;SDS011;14477;51.038;4.588;2023-02-28T15:12:56;2.63;;;1.80;;
26908;SDS011;14477;51.038;4.588;2023-02-28T15:21:06;2.28;;;1.67;;
26908;SDS011;14477;51.038;4.588;2023-02-28T15:23:36;3.75;;;1.88;;
26908;SDS011;14477;51.038;4.588;2023-02-28T15:26:04;3.55;;;1.95;;
26908;SDS011;14477;51.038;4.588;2023-02-28T15:28:31;2.63;;;2.15;;
26908;SDS011;14477;51.038;4.588;2023-02-28T15:31:02;2.60;;;1.80;;
26908;SDS011;14477;51.038;4.588;2023-02-28T15:33:51;2.40;;;1.80;;
26908;SDS011;14477;51.038;4.588;2023-02-28T15:36:19;2.40;;;1.63;;
26908;SDS011;14477;51.038;4.588;2023-02-28T15:38:50;2.53;;;1.70;;
26908;SDS011;14477;51.038;4.588;2023-02-28T15:41:36;2.30;;;1.70;;
26908;SDS011;14477;51.038;4.588;2023-02-28T15:44:24;2.07;;;1.50;;
26908;SDS011;14477;51.038;4.588;2023-02-28T15:47:04;3.17;;;2.10;;
26908;SDS011;14477;51.038;4.588;2023-02-28T15:49:44;2.88;;;1.80;;
26908;SDS011;14477;51.038;4.588;2023-02-28T15:52:17;2.97;;;1.88;;
26908;SDS011;14477;51.038;4.588;2023-02-28T15:54:47;3.10;;;1.90;;
26908;SDS011;14477;51.038;4.588;2023-02-28T15:57:15;2.60;;;1.87;;
26908;SDS011;14477;51.038;4.588;2023-02-28T15:59:54;3.17;;;1.60;;
26908;SDS011;14477;51.038;4.588;2023-02-28T16:02:30;2.28;;;1.80;;
26908;SDS011;14477;51.038;4.588;2023-02-28T16:07:36;2.80;;;1.80;;
26908;SDS011;14477;51.038;4.588;2023-02-28T16:10:03;2.97;;;1.93;;
26908;SDS011;14477;51.038;4.588;2023-02-28T16:12:31;3.60;;;2.10;;
26908;SDS011;14477;51.038;4.588;2023-02-28T16:15:00;2.53;;;1.73;;
26908;SDS011;14477;51.038;4.588;2023-02-28T16:17:32;2.67;;;1.70;;
26908;SDS011;14477;51.038;4.588;2023-02-28T16:20:01;3.33;;;2.10;;
26908;SDS011;14477;51.038;4.588;2023-02-28T16:22:37;2.43;;;1.63;;
26908;SDS011;14477;51.038;4.588;2023-02-28T16:25:03;2.40;;;1.45;;
26908;SDS011;14477;51.038;4.588;2023-02-28T16:27:33;2.13;;;1.60;;
26908;SDS011;14477;51.038;4.588;2023-02-28T16:30:02;2.00;;;1.60;;
26908;SDS011;14477;51.038;4.588;2023-02-28T16:32:30;2.03;;;1.40;;
26908;SDS011;14477;51.038;4.588;2023-02-28T16:34:57;2.92;;;1.30;;
26908;SDS011;14477;51.038;4.588;2023-02-28T16:37:22;2.78;;;1.63;;
26908;SDS011;14477;51.038;4.588;2023-02-28T16:39:48;2.77;;;1.57;;
26908;SDS011;14477;51.038;4.588;2023-02-28T16:42:20;2.17;;;1.50;;
26908;SDS011;14477;51.038;4.588;2023-02-28T16:44:51;2.05;;;1.50;;
26908;SDS011;14477;51.038;4.588;2023-02-28T16:47:18;2.20;;;1.67;;
26908;SDS011;14477;51.038;4.588;2023-02-28T16:49:44;2.90;;;1.63;;
26908;SDS011;14477;51.038;4.588;2023-02-28T16:52:10;2.30;;;1.70;;
26908;SDS011;14477;51.038;4.588;2023-02-28T16:54:37;2.13;;;1.60;;
26908;SDS011;14477;51.038;4.588;2023-02-28T16:57:04;3.25;;;1.60;;
26908;SDS011;14477;51.038;4.588;2023-02-28T16:59:31;2.33;;;1.50;;
26908;SDS011;14477;51.038;4.588;2023-02-28T17:01:57;2.83;;;1.60;;
26908;SDS011;14477;51.038;4.588;2023-02-28T17:04:24;2.05;;;1.50;;
26908;SDS011;14477;51.038;4.588;2023-02-28T17:06:51;2.30;;;1.70;;
26908;SDS011;14477;51.038;4.588;2023-02-28T17:09:18;1.98;;;1.40;;
26908;SDS011;14477;51.038;4.588;2023-02-28T17:11:45;2.00;;;1.38;;
26908;SDS011;14477;51.038;4.588;2023-02-28T17:14:12;2.03;;;1.40;;
26908;SDS011;14477;51.038;4.588;2023-02-28T17:16:38;2.40;;;1.40;;
26908;SDS011;14477;51.038;4.588;2023-02-28T17:19:06;2.13;;;1.50;;
26908;SDS011;14477;51.038;4.588;2023-02-28T17:21:36;2.50;;;1.60;;
26908;SDS011;14477;51.038;4.588;2023-02-28T17:24:02;2.05;;;1.42;;
26908;SDS011;14477;51.038;4.588;2023-02-28T17:26:28;1.73;;;1.40;;
26908;SDS011;14477;51.038;4.588;2023-02-28T17:28:55;2.00;;;1.50;;
26908;SDS011;14477;51.038;4.588;2023-02-28T17:31:22;2.00;;;1.23;;
26908;SDS011;14477;51.038;4.588;2023-02-28T17:33:52;2.13;;;1.50;;
26908;SDS011;14477;51.038;4.588;2023-02-28T17:36:25;2.83;;;1.50;;
26908;SDS011;14477;51.038;4.588;2023-02-28T17:38:52;2.35;;;1.30;;
26908;SDS011;14477;51.038;4.588;2023-02-28T17:41:20;2.80;;;1.42;;
26908;SDS011;14477;51.038;4.588;2023-02-28T17:43:46;2.40;;;1.63;;
26908;SDS011;14477;51.038;4.588;2023-02-28T17:46:19;3.95;;;1.70;;
26908;SDS011;14477;51.038;4.588;2023-02-28T17:48:48;2.47;;;1.60;;
26908;SDS011;14477;51.038;4.588;2023-02-28T17:51:15;3.03;;;1.45;;